Time;durP1;ratioP1;P1;durP2;ratioP2;P2;SDS_P1;SDS_P2;PMS_P1;PMS_P2;Temp;Humidity;BMP_temperature;BMP_pressure;BME280_temperature;BME280_humidity;BME280_pressure;Samples;Min_cycle;Max_cycle;Signal;HPM_P1;HPM_P2
2023/09/26 00:00:24;;;;;;;4.97;2.08;;;;;;;15.91;74.58;102033.81;2089859;28;20037;-65
2023/09/26 00:01:32;;;;;;;7.60;2.88;;;;;;;15.91;74.47;102039.25;2091761;28;20028;-66
2023/09/26 00:02:38;;;;;;;7.60;2.40;;;;;;;15.90;74.45;102034.94;2090977;28;20021;-65
2023/09/26 00:03:43;;;;;;;5.53;2.80;;;;;;;15.90;74.48;102034.94;2082805;28;20841;-65
2023/09/26 00:04:44;;;;;;;5.70;2.38;;;;;;;15.87;74.48;102032.78;2087639;28;20033;-65
2023/09/26 00:05:48;;;;;;;4.07;2.33;;;;;;;15.91;74.54;102041.97;2089707;28;20050;-65
2023/09/26 00:06:51;;;;;;;3.88;2.20;;;;;;;15.91;74.76;102038.44;2098687;28;20025;-65
2023/09/26 00:07:56;;;;;;;9.98;2.42;;;;;;;15.91;74.39;102041.16;2097904;28;20037;-65
2023/09/26 00:08:58;;;;;;;8.27;2.53;;;;;;;15.91;74.77;102038.44;2082180;28;20026;-65
2023/09/26 00:10:01;;;;;;;6.45;2.58;;;;;;;15.91;74.74;102033.81;2089887;28;20791;-65
2023/09/26 00:11:04;;;;;;;9.77;2.28;;;;;;;15.89;74.63;102038.75;2098341;28;20123;-65
2023/09/26 00:12:08;;;;;;;6.05;2.58;;;;;;;15.88;74.87;102028.97;2090065;28;20160;-65
2023/09/26 00:13:17;;;;;;;4.75;2.40;;;;;;;15.86;74.35;102027.63;2090389;28;20131;-65
2023/09/26 00:14:21;;;;;;;4.18;2.15;;;;;;;15.88;74.91;102039.00;2091163;28;20140;-65
2023/09/26 00:15:23;;;;;;;6.43;2.42;;;;;;;15.87;74.50;102032.78;2097582;28;20048;-65
2023/09/26 00:16:30;;;;;;;4.40;2.25;;;;;;;15.88;74.74;102034.38;2104425;28;20215;-65
2023/09/26 00:17:36;;;;;;;5.55;2.20;;;;;;;15.88;74.65;102039.81;2097750;28;20178;-65
2023/09/26 00:18:42;;;;;;;7.32;2.63;;;;;;;15.88;74.41;102039.81;2084102;28;20029;-65
2023/09/26 00:19:43;;;;;;;4.10;2.15;;;;;;;15.87;74.50;102043.63;2081520;28;20772;-65
2023/09/26 00:20:47;;;;;;;5.47;2.30;;;;;;;15.86;74.41;102035.78;2082171;28;20666;-65
2023/09/26 00:21:52;;;;;;;5.63;2.38;;;;;;;15.85;74.59;102034.94;2082691;28;20102;-65
2023/09/26 00:22:59;;;;;;;4.63;2.60;;;;;;;15.84;74.44;102037.94;2089890;28;20878;-64
2023/09/26 00:24:05;;;;;;;5.05;2.03;;;;;;;15.85;74.82;102034.13;2089849;28;20029;-64
2023/09/26 00:25:10;;;;;;;4.45;2.38;;;;;;;15.84;74.23;102036.03;2099499;28;20028;-65
2023/09/26 00:26:16;;;;;;;5.18;2.20;;;;;;;15.84;74.47;102033.31;2106330;28;20067;-64
2023/09/26 00:27:24;;;;;;;4.80;2.40;;;;;;;15.81;74.21;102033.88;2106256;28;20032;-64
2023/09/26 00:28:31;;;;;;;6.13;2.25;;;;;;;15.85;74.29;102040.38;2106094;28;20142;-64
2023/09/26 00:29:35;;;;;;;4.47;2.00;;;;;;;15.83;74.33;102042.56;2090329;28;20025;-65
2023/09/26 00:30:42;;;;;;;3.30;2.05;;;;;;;15.82;74.67;102035.50;2099084;28;20045;-64
2023/09/26 00:31:46;;;;;;;6.13;2.40;;;;;;;15.80;74.54;102034.97;2089465;28;20148;-65
2023/09/26 00:32:50;;;;;;;3.53;2.20;;;;;;;15.82;74.53;102040.91;2082381;28;20033;-65
2023/09/26 00:33:56;;;;;;;3.08;2.10;;;;;;;15.82;74.31;102035.50;2098875;28;20075;-64
2023/09/26 00:35:04;;;;;;;4.38;2.20;;;;;;;15.84;74.45;102040.66;2094727;28;20114;-65
2023/09/26 00:36:08;;;;;;;6.97;2.20;;;;;;;15.85;74.29;102040.38;2083145;28;20065;-64
2023/09/26 00:37:11;;;;;;;4.15;2.42;;;;;;;15.85;74.30;102043.06;2099043;28;20902;-64
2023/09/26 00:38:13;;;;;;;6.80;2.53;;;;;;;15.87;74.19;102034.69;2097478;28;20135;-65
2023/09/26 00:39:17;;;;;;;4.85;2.22;;;;;;;15.87;74.33;102043.63;2074181;28;20102;-64
2023/09/26 00:40:22;;;;;;;5.82;2.17;;;;;;;15.89;74.13;102036.03;2081209;28;20857;-65
2023/09/26 00:41:29;;;;;;;5.28;2.30;;;;;;;15.89;73.98;102035.19;2098730;28;20084;-65
2023/09/26 00:42:37;;;;;;;6.97;2.00;;;;;;;15.89;73.98;102041.44;2089562;28;20872;-65
2023/09/26 00:43:49;;;;;;;5.95;2.20;;;;;;;15.91;74.23;102039.25;2093331;28;20820;-65
2023/09/26 00:44:51;;;;;;;9.20;2.30;;;;;;;15.92;74.11;102035.47;2105434;28;20052;-66
2023/09/26 00:46:05;;;;;;;9.40;2.25;;;;;;;15.94;73.83;102035.19;2089226;28;20038;-66
2023/09/26 00:47:10;;;;;;;4.97;2.03;;;;;;;15.95;74.20;102034.06;2087215;28;20135;-65
2023/09/26 00:48:14;;;;;;;4.07;2.30;;;;;;;15.96;73.75;102039.25;2089328;28;20080;-65
2023/09/26 00:49:19;;;;;;;20.33;2.70;;;;;;;15.99;74.02;102038.69;2082254;28;20099;-65
2023/09/26 00:50:24;;;;;;;4.28;2.05;;;;;;;16.04;73.61;102047.88;2089319;28;20928;-64
2023/09/26 00:51:29;;;;;;;4.85;2.47;;;;;;;16.06;73.93;102041.09;2081818;28;20042;-63
2023/09/26 00:52:31;;;;;;;5.88;2.60;;;;;;;16.10;73.59;102041.34;2082673;28;20195;-65
2023/09/26 00:53:41;;;;;;;3.92;2.28;;;;;;;16.13;73.69;102040.78;2089966;28;22010;-64
2023/09/26 00:54:47;;;;;;;4.00;2.05;;;;;;;16.15;73.28;102033.19;2092004;28;20045;-64
2023/09/26 00:55:59;;;;;;;4.50;2.50;;;;;;;16.19;73.04;102031.53;2089373;28;20053;-64
2023/09/26 00:57:04;;;;;;;6.47;2.50;;;;;;;16.23;73.07;102040.72;2075653;28;20019;-64
2023/09/26 00:58:11;;;;;;;5.60;2.20;;;;;;;16.26;73.01;102037.44;2091356;28;20151;-64
2023/09/26 00:59:13;;;;;;;4.97;2.05;;;;;;;16.29;72.88;102036.88;2090116;28;20111;-64
2023/09/26 01:00:21;;;;;;;3.72;2.35;;;;;;;16.30;73.00;102035.81;2081471;28;20797;-64
2023/09/26 01:01:30;;;;;;;3.85;2.22;;;;;;;16.33;72.83;102035.25;2091967;28;20111;-65
2023/09/26 01:02:32;;;;;;;6.35;2.33;;;;;;;16.36;72.85;102033.84;2090204;28;20116;-65
2023/09/26 01:03:40;;;;;;;4.45;2.10;;;;;;;16.36;72.36;102034.69;2090095;28;20033;-65
2023/09/26 01:04:44;;;;;;;4.65;2.00;;;;;;;16.38;72.66;102037.91;2075635;28;20144;-65
2023/09/26 01:05:52;;;;;;;3.97;2.20;;;;;;;16.41;72.59;102037.34;2090654;28;20032;-65
2023/09/26 01:06:57;;;;;;;3.47;1.90;;;;;;;16.44;72.54;102038.69;2098728;28;20025;-64
2023/09/26 01:08:23;;;;;;;5.47;2.13;;;;;;;16.47;72.66;102032.72;2105594;28;20151;-65
2023/09/26 01:09:25;;;;;;;4.47;2.15;;;;;;;16.49;72.47;102035.13;2093148;28;20041;-65
2023/09/26 01:10:29;;;;;;;5.35;2.30;;;;;;;16.50;72.13;102039.47;2081462;28;20034;-65
2023/09/26 01:11:35;;;;;;;5.40;2.25;;;;;;;16.51;72.10;102036.47;2075375;28;20039;-65
2023/09/26 01:12:40;;;;;;;3.67;2.00;;;;;;;16.52;72.32;102040.00;2091254;28;20022;-64
2023/09/26 01:13:41;;;;;;;4.55;2.17;;;;;;;16.54;72.31;102040.53;2089757;28;21199;-65
2023/09/26 01:14:45;;;;;;;4.05;1.80;;;;;;;16.55;71.99;102036.72;2090134;28;20154;-65
2023/09/26 01:15:48;;;;;;;5.43;2.30;;;;;;;16.54;71.99;102032.38;2098212;28;20037;-65
2023/09/26 01:17:10;;;;;;;5.57;2.38;;;;;;;16.54;71.86;102033.19;2106721;28;20184;-65
2023/09/26 01:18:16;;;;;;;3.70;2.00;;;;;;;16.52;71.96;102027.25;2096424;28;20971;-66
2023/09/26 01:19:18;;;;;;;3.95;2.00;;;;;;;16.55;72.03;102040.25;2098090;28;20854;-66
2023/09/26 01:20:28;;;;;;;5.47;2.20;;;;;;;16.55;72.09;102031.28;2082599;28;20033;-66
2023/09/26 01:21:32;;;;;;;5.70;2.15;;;;;;;16.55;71.89;102034.84;2076592;28;20873;-65
2023/09/26 01:22:34;;;;;;;5.95;2.53;;;;;;;16.55;71.67;102040.25;2089666;28;20041;-65
2023/09/26 01:23:39;;;;;;;4.35;2.13;;;;;;;16.57;71.80;102037.25;2081638;28;20054;-66
2023/09/26 01:24:45;;;;;;;5.32;2.10;;;;;;;16.55;71.64;102036.72;2089802;28;20064;-65
2023/09/26 01:25:51;;;;;;;3.28;2.30;;;;;;;16.54;71.50;102030.47;2099256;28;20048;-65
2023/09/26 01:26:55;;;;;;;5.05;2.03;;;;;;;16.54;71.33;102035.91;2105971;28;20037;-65
2023/09/26 01:28:05;;;;;;;4.70;2.20;;;;;;;16.51;71.63;102031.03;2089541;28;20042;-65
2023/09/26 01:29:07;;;;;;;5.57;2.17;;;;;;;16.49;71.91;102026.97;2092992;28;20068;-65
2023/09/26 01:30:12;;;;;;;4.70;2.33;;;;;;;16.47;71.86;102031.91;2098934;28;20854;-65
2023/09/26 01:31:14;;;;;;;4.15;2.45;;;;;;;16.46;71.96;102028.38;2099603;28;20024;-65
2023/09/26 01:32:22;;;;;;;6.25;2.20;;;;;;;16.45;72.02;102027.53;2082644;28;20022;-65
2023/09/26 01:33:29;;;;;;;8.35;2.40;;;;;;;16.44;72.07;102025.94;2086731;28;20030;-65
2023/09/26 01:34:36;;;;;;;4.55;2.00;;;;;;;16.44;71.90;102020.50;2091577;28;20140;-65
2023/09/26 01:35:38;;;;;;;5.00;2.42;;;;;;;16.41;71.94;102026.50;2097141;28;20017;-64
2023/09/26 01:36:40;;;;;;;3.88;1.95;;;;;;;16.41;72.06;102021.06;2098989;28;20087;-64
2023/09/26 01:37:50;;;;;;;8.63;2.38;;;;;;;16.41;71.96;102023.78;2106920;28;20052;-64
2023/09/26 01:38:56;;;;;;;4.60;1.90;;;;;;;16.44;71.97;102023.22;2098464;28;20113;-65
2023/09/26 01:39:58;;;;;;;5.07;2.17;;;;;;;16.48;72.10;102030.78;2083235;28;20034;-65
2023/09/26 01:41:02;;;;;;;4.40;2.20;;;;;;;16.50;71.89;102017.75;2082789;28;20065;-64
2023/09/26 01:42:07;;;;;;;4.20;2.22;;;;;;;16.51;71.85;102022.91;2082535;28;20797;-64
2023/09/26 01:43:11;;;;;;;4.53;1.80;;;;;;;16.54;71.87;102021.53;2083750;28;20045;-65
2023/09/26 01:44:12;;;;;;;5.32;1.95;;;;;;;16.56;71.58;102024.78;2099425;28;20087;-65
2023/09/26 01:45:18;;;;;;;5.32;2.05;;;;;;;16.58;71.75;102025.28;2106302;28;20234;-65
2023/09/26 01:46:22;;;;;;;5.38;2.30;;;;;;;16.58;71.60;102026.13;2107211;28;20029;-65
2023/09/26 01:47:36;;;;;;;5.15;2.20;;;;;;;16.57;71.47;102020.97;2090394;28;20025;-65
2023/09/26 01:48:40;;;;;;;6.88;2.42;;;;;;;16.56;71.52;102022.88;2097071;28;20149;-66
2023/09/26 01:49:48;;;;;;;5.50;2.10;;;;;;;16.58;71.44;102019.84;2106586;28;20029;-65
2023/09/26 01:50:51;;;;;;;3.88;2.00;;;;;;;16.58;71.50;102020.69;2097595;28;20037;-66
2023/09/26 01:51:55;;;;;;;4.60;2.00;;;;;;;16.59;71.65;102013.34;2091046;28;20123;-65
2023/09/26 01:52:57;;;;;;;4.50;1.90;;;;;;;16.57;71.07;102019.06;2090397;28;20755;-65
2023/09/26 01:54:02;;;;;;;4.03;1.80;;;;;;;16.56;71.27;102013.91;2091271;28;20089;-65
2023/09/26 01:55:14;;;;;;;4.80;2.10;;;;;;;16.50;71.54;102009.63;2099513;28;20048;-65
2023/09/26 01:56:15;;;;;;;4.63;1.92;;;;;;;16.49;71.06;102013.41;2086848;28;20013;-65
2023/09/26 01:57:18;;;;;;;8.27;2.25;;;;;;;16.48;71.18;102011.78;2090547;28;20135;-65
2023/09/26 01:58:20;;;;;;;3.95;1.65;;;;;;;16.43;71.30;102008.03;2090111;28;20076;-65
2023/09/26 01:59:22;;;;;;;7.43;1.98;;;;;;;16.43;71.60;102008.03;2090572;28;20029;-65
2023/09/26 02:00:32;;;;;;;4.65;1.70;;;;;;;16.44;71.70;102009.66;2099042;28;20134;-65
2023/09/26 02:01:37;;;;;;;5.18;1.98;;;;;;;16.45;71.35;102008.53;2099600;28;20061;-65
2023/09/26 02:02:53;;;;;;;3.85;2.05;;;;;;;16.46;71.26;102009.38;2098955;28;20140;-65
2023/09/26 02:03:55;;;;;;;3.47;1.85;;;;;;;16.44;71.25;102009.66;2094636;28;20021;-65
2023/09/26 02:05:03;;;;;;;3.90;1.83;;;;;;;16.43;71.59;102013.47;2103929;28;20234;-65
2023/09/26 02:06:06;;;;;;;8.48;2.15;;;;;;;16.41;71.43;102001.25;2098124;28;20147;-65
2023/09/26 02:07:08;;;;;;;6.70;2.00;;;;;;;16.39;71.39;102009.69;2082578;28;20837;-65
2023/09/26 02:08:10;;;;;;;4.90;2.10;;;;;;;16.37;71.48;102001.00;2090872;28;20859;-65
2023/09/26 02:09:15;;;;;;;5.43;1.90;;;;;;;16.35;71.89;102000.47;2098683;28;20068;-65
2023/09/26 02:10:19;;;;;;;4.53;1.80;;;;;;;16.37;71.62;102003.72;2091408;28;20076;-65
2023/09/26 02:11:25;;;;;;;6.25;2.00;;;;;;;16.37;71.73;102009.16;2107376;28;20175;-65
2023/09/26 02:12:34;;;;;;;5.72;1.98;;;;;;;16.37;71.69;102003.72;2106755;28;20033;-65
2023/09/26 02:13:41;;;;;;;6.15;1.98;;;;;;;16.38;71.70;102007.25;2098599;28;20063;-65
2023/09/26 02:14:43;;;;;;;5.35;2.00;;;;;;;16.36;71.81;102007.53;2091761;28;20083;-65
2023/09/26 02:15:46;;;;;;;4.90;2.00;;;;;;;16.37;71.64;102006.44;2090103;28;20026;-65
2023/09/26 02:16:48;;;;;;;6.78;2.05;;;;;;;16.35;71.71;102005.91;2089149;28;20868;-65
2023/09/26 02:17:52;;;;;;;4.88;2.05;;;;;;;16.34;71.62;101998.88;2106653;28;20037;-65
2023/09/26 02:18:56;;;;;;;4.68;2.03;;;;;;;16.35;71.54;102008.63;2103056;28;20152;-65
2023/09/26 02:20:00;;;;;;;8.70;1.95;;;;;;;16.34;71.73;102003.50;2099297;28;20021;-65
2023/09/26 02:21:17;;;;;;;3.80;1.90;;;;;;;16.34;71.64;102004.28;2083208;28;20152;-65
2023/09/26 02:22:24;;;;;;;8.15;1.77;;;;;;;16.37;71.54;102003.72;2085394;28;20042;-65
2023/09/26 02:23:27;;;;;;;6.68;2.20;;;;;;;16.34;71.75;101998.88;2099874;28;20040;-65
2023/09/26 02:24:31;;;;;;;3.38;1.70;;;;;;;16.35;71.82;101994.25;2098895;28;20987;-65
2023/09/26 02:25:33;;;;;;;5.38;1.90;;;;;;;16.35;71.67;101999.66;2090968;28;20037;-65
2023/09/26 02:26:40;;;;;;;5.20;2.03;;;;;;;16.37;71.50;102000.22;2090116;28;20029;-65
2023/09/26 02:27:46;;;;;;;5.47;2.10;;;;;;;16.35;71.46;101997.75;2091385;28;20022;-65
2023/09/26 02:28:51;;;;;;;5.28;2.00;;;;;;;16.34;71.56;101995.34;2100050;28;20037;-65
2023/09/26 02:29:53;;;;;;;4.20;1.80;;;;;;;16.35;71.39;101999.66;2105576;28;20041;-65
2023/09/26 02:30:59;;;;;;;5.53;1.90;;;;;;;16.32;71.71;101987.47;2098879;28;20847;-65
2023/09/26 02:32:02;;;;;;;4.53;1.88;;;;;;;16.32;71.89;101995.59;2098532;28;20033;-65
2023/09/26 02:33:06;;;;;;;7.72;2.25;;;;;;;16.30;71.91;101995.09;2090373;28;20856;-65
2023/09/26 02:34:10;;;;;;;5.22;1.85;;;;;;;16.27;72.30;101989.41;2082578;28;20975;-64
2023/09/26 02:35:19;;;;;;;5.88;2.10;;;;;;;16.25;71.99;102000.56;2098379;28;20053;-64
2023/09/26 02:36:20;;;;;;;;;;;;;;;16.21;72.17;101989.44;2098447;28;20348;-65
2023/09/26 02:37:27;;;;;;;6.10;2.00;;;;;;;16.20;72.55;101992.44;2090440;28;19909;-65
2023/09/26 02:38:29;;;;;;;5.93;2.10;;;;;;;16.22;72.45;101991.06;2099543;28;20029;-64
2023/09/26 02:39:35;;;;;;;5.50;1.85;;;;;;;16.23;72.37;102000.00;2090006;28;20018;-64
2023/09/26 02:40:42;;;;;;;5.63;2.20;;;;;;;16.22;72.49;101987.53;2082615;28;20045;-64
2023/09/26 02:41:46;;;;;;;3.67;2.15;;;;;;;16.25;72.28;101999.75;2091713;28;20033;-65
2023/09/26 02:42:54;;;;;;;4.30;2.03;;;;;;;16.22;72.49;101996.50;2081660;28;20089;-65
2023/09/26 02:44:03;;;;;;;2.85;1.98;;;;;;;16.22;72.57;101998.41;2086019;28;20049;-64
2023/09/26 02:45:08;;;;;;;5.18;1.98;;;;;;;16.21;72.57;101994.06;2091486;28;20025;-65
2023/09/26 02:46:12;;;;;;;4.25;1.73;;;;;;;16.23;72.62;101989.16;2083909;28;20108;-65
2023/09/26 02:47:19;;;;;;;4.88;2.25;;;;;;;16.25;72.38;101992.41;2090684;28;20053;-65
2023/09/26 02:48:23;;;;;;;4.22;1.90;;;;;;;16.28;72.46;101989.13;2082833;28;20193;-65
2023/09/26 02:49:25;;;;;;;4.70;2.22;;;;;;;16.29;72.62;101990.75;2099229;28;20068;-65
2023/09/26 02:50:26;;;;;;;5.30;2.15;;;;;;;16.28;72.63;101989.13;2089501;28;20100;-65
2023/09/26 02:51:30;;;;;;;4.25;1.85;;;;;;;16.28;72.48;101991.03;2089997;28;20036;-65
2023/09/26 02:52:35;;;;;;;3.20;1.83;;;;;;;16.24;72.81;101985.38;2090861;28;20791;-65
2023/09/26 02:53:41;;;;;;;3.42;1.70;;;;;;;16.24;72.80;101988.09;2083771;28;20033;-65
2023/09/26 02:54:44;;;;;;;4.45;2.20;;;;;;;16.26;73.15;101979.66;2091524;28;20030;-65
2023/09/26 02:55:46;;;;;;;4.63;2.20;;;;;;;16.28;72.85;101988.31;2097506;28;20068;-65
2023/09/26 02:56:50;;;;;;;5.07;1.95;;;;;;;16.28;72.87;101982.91;2090416;28;20791;-65
2023/09/26 02:57:52;;;;;;;7.40;2.03;;;;;;;16.25;72.81;101989.69;2098830;28;20061;-65
2023/09/26 02:58:54;;;;;;;4.90;2.20;;;;;;;16.26;72.84;101982.34;2105899;28;20033;-65
2023/09/26 02:59:58;;;;;;;4.40;2.10;;;;;;;16.26;73.20;101994.03;2106082;28;20040;-66
2023/09/26 03:01:04;;;;;;;2.58;1.70;;;;;;;16.24;73.27;101979.94;2107606;28;20793;-65
2023/09/26 03:02:07;;;;;;;4.95;1.80;;;;;;;16.24;73.12;101985.38;2106698;28;20091;-65
2023/09/26 03:03:09;;;;;;;5.97;2.22;;;;;;;16.25;73.29;101986.97;2106531;28;20863;-65
2023/09/26 03:04:11;;;;;;;4.85;1.70;;;;;;;16.29;73.32;101987.22;2106651;28;20857;-65
2023/09/26 03:05:16;;;;;;;4.00;2.00;;;;;;;16.31;73.00;101990.47;2098992;28;20060;-65
2023/09/26 03:06:24;;;;;;;6.85;1.92;;;;;;;16.31;72.99;101988.56;2098899;28;20033;-65
2023/09/26 03:07:29;;;;;;;5.32;2.00;;;;;;;16.33;73.11;101991.81;2098111;28;20064;-65
2023/09/26 03:08:31;;;;;;;4.05;2.10;;;;;;;16.33;72.96;101983.69;2082421;28;20211;-65
2023/09/26 03:09:33;;;;;;;3.33;1.92;;;;;;;16.32;73.22;101987.47;2091104;28;20025;-65
2023/09/26 03:10:40;;;;;;;2.92;1.90;;;;;;;16.32;73.04;101983.94;2090170;28;20071;-65
2023/09/26 03:11:45;;;;;;;5.10;2.00;;;;;;;16.29;73.16;101988.03;2090844;28;20046;-64
2023/09/26 03:12:50;;;;;;;7.50;2.30;;;;;;;16.31;73.01;101991.28;2098835;28;20052;-65
2023/09/26 03:13:52;;;;;;;5.57;1.95;;;;;;;16.31;73.02;101983.13;2099024;28;20964;-65
2023/09/26 03:14:55;;;;;;;7.70;2.25;;;;;;;16.31;72.89;101983.13;2090274;28;20136;-65
2023/09/26 03:15:57;;;;;;;3.78;1.83;;;;;;;16.33;73.26;101980.97;2090439;28;20037;-65
2023/09/26 03:17:05;;;;;;;5.03;2.13;;;;;;;16.33;72.87;101978.25;2082587;28;20776;-65
2023/09/26 03:18:10;;;;;;;7.57;1.95;;;;;;;16.32;73.07;101979.31;2092570;28;20136;-65
2023/09/26 03:19:16;;;;;;;5.20;2.28;;;;;;;16.31;72.94;101979.63;2096143;28;20054;-65
2023/09/26 03:20:21;;;;;;;3.40;2.05;;;;;;;16.33;73.16;101975.53;2093167;28;20037;-65
2023/09/26 03:21:22;;;;;;;6.43;2.20;;;;;;;16.33;72.84;101980.97;2099009;28;20033;-65
2023/09/26 03:22:26;;;;;;;5.07;2.00;;;;;;;16.34;73.19;101977.16;2090198;28;20117;-65
2023/09/26 03:23:28;;;;;;;5.10;2.22;;;;;;;16.33;73.14;101978.25;2090765;28;20138;-65
2023/09/26 03:24:33;;;;;;;4.47;2.00;;;;;;;16.35;73.22;101978.75;2098564;28;20037;-65
2023/09/26 03:25:37;;;;;;;5.55;2.92;;;;;;;16.33;73.24;101980.97;2090576;28;20033;-65
2023/09/26 03:26:42;;;;;;;5.35;2.25;;;;;;;16.35;73.44;101986.09;2082896;28;20048;-65
2023/09/26 03:27:52;;;;;;;4.47;2.00;;;;;;;16.34;73.12;101971.72;2083520;28;20776;-65
2023/09/26 03:28:57;;;;;;;6.97;2.03;;;;;;;16.35;73.07;101973.34;2098548;28;20037;-65
2023/09/26 03:30:03;;;;;;;7.53;2.35;;;;;;;16.36;73.16;101977.69;2098878;28;20072;-65
2023/09/26 03:31:09;;;;;;;7.00;2.10;;;;;;;16.36;73.16;101972.25;2106782;28;20021;-65
2023/09/26 03:32:11;;;;;;;5.85;2.40;;;;;;;16.38;72.99;101971.97;2098539;28;20072;-64
2023/09/26 03:33:16;;;;;;;5.55;2.33;;;;;;;16.36;73.16;101969.53;2089921;28;20076;-64
2023/09/26 03:34:19;;;;;;;8.32;2.40;;;;;;;16.33;73.29;101972.81;2080763;28;20940;-64
2023/09/26 03:35:23;;;;;;;7.38;2.30;;;;;;;16.34;73.51;101965.50;2090431;28;20032;-66
2023/09/26 03:36:25;;;;;;;9.18;2.55;;;;;;;16.32;73.49;101967.66;2088811;28;20026;-66
2023/09/26 03:37:28;;;;;;;7.75;2.10;;;;;;;16.30;73.57;101958.97;2090107;28;20037;-66
2023/09/26 03:38:31;;;;;;;10.73;2.30;;;;;;;16.31;73.53;101960.63;2098906;28;20045;-65
2023/09/26 03:39:35;;;;;;;4.32;2.40;;;;;;;16.29;73.81;101958.19;2098161;28;20025;-66
2023/09/26 03:40:38;;;;;;;4.28;2.35;;;;;;;16.28;73.68;101962.00;2090651;28;20041;-66
2023/09/26 03:41:39;;;;;;;4.97;2.20;;;;;;;16.26;73.64;101955.22;2098413;28;20048;-66
2023/09/26 03:42:42;;;;;;;4.20;2.08;;;;;;;16.24;73.82;101965.56;2106622;28;20025;-66
2023/09/26 03:43:44;;;;;;;4.93;2.38;;;;;;;16.21;73.85;101947.94;2097264;28;20209;-66
2023/09/26 03:44:50;;;;;;;9.98;2.55;;;;;;;16.20;73.97;101965.28;2090012;28;20036;-66
2023/09/26 03:45:54;;;;;;;3.80;2.10;;;;;;;16.20;73.93;101963.41;2090048;28;20231;-66
2023/09/26 03:46:56;;;;;;;6.68;2.30;;;;;;;16.21;74.23;101953.38;2098374;28;20045;-66
2023/09/26 03:47:58;;;;;;;4.40;2.03;;;;;;;16.22;74.21;101960.41;2098134;28;20041;-66
2023/09/26 03:49:00;;;;;;;3.67;1.85;;;;;;;16.22;74.32;101960.41;2094582;28;20127;-66
2023/09/26 03:50:06;;;;;;;8.68;2.60;;;;;;;16.21;74.26;101956.09;2089066;28;20033;-66
2023/09/26 03:51:14;;;;;;;4.93;2.00;;;;;;;16.21;74.10;101951.47;2088291;28;20977;-66
2023/09/26 03:52:21;;;;;;;8.00;2.08;;;;;;;16.20;74.13;101958.00;2082641;28;20880;-66
2023/09/26 03:53:23;;;;;;;5.05;2.38;;;;;;;16.20;74.06;101955.28;2083546;28;20066;-66
2023/09/26 03:54:28;;;;;;;7.20;2.45;;;;;;;16.20;74.24;101955.28;2082260;28;20856;-66
2023/09/26 03:55:32;;;;;;;5.10;2.20;;;;;;;16.21;74.07;101964.22;2098900;28;20045;-65
2023/09/26 03:56:35;;;;;;;4.85;2.00;;;;;;;16.21;74.09;101961.50;2098025;28;20064;-65
2023/09/26 03:57:39;;;;;;;7.72;2.20;;;;;;;16.22;74.28;101957.69;2098564;28;20844;-65
2023/09/26 03:58:46;;;;;;;7.43;2.83;;;;;;;16.21;74.22;101956.09;2090380;28;20246;-65
2023/09/26 03:59:51;;;;;;;3.25;2.10;;;;;;;16.17;74.26;101955.00;2090832;28;20038;-65
2023/09/26 04:01:08;;;;;;;5.97;2.50;;;;;;;16.15;74.51;101952.59;2098110;28;20049;-65
2023/09/26 04:02:15;;;;;;;6.38;2.30;;;;;;;16.17;74.33;101960.44;2099960;28;20045;-65
2023/09/26 04:03:16;;;;;;;3.65;2.42;;;;;;;16.18;74.42;101951.22;2089099;28;20044;-65
2023/09/26 04:04:17;;;;;;;5.28;2.25;;;;;;;16.20;74.45;101957.16;2081778;28;20864;-65
2023/09/26 04:05:25;;;;;;;5.30;2.25;;;;;;;16.21;74.47;101966.94;2098669;28;20103;-65
2023/09/26 04:06:30;;;;;;;7.57;2.47;;;;;;;16.21;74.29;101953.38;2088922;28;20041;-65
2023/09/26 04:07:34;;;;;;;4.18;2.50;;;;;;;16.22;74.45;101954.97;2099235;28;20037;-65
2023/09/26 04:08:39;;;;;;;4.45;2.10;;;;;;;16.22;74.37;101953.06;2106251;28;20032;-65
2023/09/26 04:09:40;;;;;;;4.70;1.92;;;;;;;16.23;74.42;101953.88;2106253;28;20040;-65
2023/09/26 04:10:45;;;;;;;6.70;2.35;;;;;;;16.23;74.56;101956.59;2098434;28;20028;-65
2023/09/26 04:11:50;;;;;;;5.82;2.40;;;;;;;16.22;74.27;101961.22;2082056;28;20081;-65
2023/09/26 04:12:54;;;;;;;6.00;2.60;;;;;;;16.20;74.49;101962.59;2082900;28;20034;-65
2023/09/26 04:14:05;;;;;;;5.15;2.30;;;;;;;16.20;74.49;101959.88;2091890;28;20045;-65
2023/09/26 04:15:12;;;;;;;9.82;2.45;;;;;;;16.18;74.32;101959.34;2106936;28;20056;-65
2023/09/26 04:16:14;;;;;;;3.60;2.17;;;;;;;16.15;74.29;101958.00;2098383;28;20037;-65
2023/09/26 04:17:16;;;;;;;9.20;2.33;;;;;;;16.13;74.75;101951.25;2098422;28;20084;-65
2023/09/26 04:18:24;;;;;;;5.00;2.40;;;;;;;16.10;74.85;101949.91;2098576;28;20024;-65
2023/09/26 04:19:34;;;;;;;5.25;2.00;;;;;;;16.10;75.13;101951.81;2098580;28;20095;-65
2023/09/26 04:20:37;;;;;;;5.05;2.30;;;;;;;16.12;75.06;101947.72;2090820;28;20041;-65
2023/09/26 04:21:41;;;;;;;7.90;2.58;;;;;;;16.12;74.83;101944.19;2077997;28;20022;-65
2023/09/26 04:22:51;;;;;;;4.57;2.47;;;;;;;16.11;75.02;101948.00;2091812;28;20021;-65
2023/09/26 04:23:54;;;;;;;7.50;2.78;;;;;;;16.13;75.30;101953.94;2105880;28;20049;-65
2023/09/26 04:24:58;;;;;;;5.47;2.70;;;;;;;16.14;75.04;101947.44;2097733;28;20107;-65
2023/09/26 04:26:11;;;;;;;5.93;2.25;;;;;;;16.14;74.99;101947.44;2098469;28;20787;-65
2023/09/26 04:27:13;;;;;;;7.63;2.47;;;;;;;16.15;75.04;101951.78;2107580;28;20041;-64
2023/09/26 04:28:17;;;;;;;10.13;2.55;;;;;;;16.16;75.35;101947.97;2114295;28;20835;-65
2023/09/26 04:29:20;;;;;;;8.02;2.42;;;;;;;16.16;75.29;101953.41;2105623;28;20937;-65
2023/09/26 04:30:24;;;;;;;5.78;2.80;;;;;;;16.16;75.05;101945.25;2105696;28;20127;-64
2023/09/26 04:31:29;;;;;;;3.67;2.53;;;;;;;16.16;75.29;101954.19;2105684;28;20032;-65
2023/09/26 04:32:30;;;;;;;5.03;2.60;;;;;;;16.14;75.07;101942.00;2104987;28;20125;-65
2023/09/26 04:33:38;;;;;;;5.30;2.92;;;;;;;16.14;75.38;101944.72;2097823;28;20025;-64
2023/09/26 04:34:40;;;;;;;7.25;2.85;;;;;;;16.14;75.07;101945.53;2098103;28;20036;-64
2023/09/26 04:35:43;;;;;;;5.57;2.30;;;;;;;16.15;75.42;101944.44;2098101;28;20155;-65
2023/09/26 04:36:48;;;;;;;8.60;2.85;;;;;;;16.13;75.45;101946.63;2096664;28;20059;-64
2023/09/26 04:37:53;;;;;;;7.03;2.30;;;;;;;16.13;75.48;101943.91;2099177;28;20836;-64
2023/09/26 04:38:57;;;;;;;6.40;2.70;;;;;;;16.13;75.21;101941.19;2106448;28;21005;-64
2023/09/26 04:40:00;;;;;;;6.05;2.40;;;;;;;16.14;75.32;101944.72;2106911;28;21291;-64
2023/09/26 04:41:05;;;;;;;7.00;2.88;;;;;;;16.16;75.33;101948.78;2106239;28;20138;-64
2023/09/26 04:42:11;;;;;;;6.60;2.72;;;;;;;16.17;75.50;101944.16;2098220;28;20227;-64
2023/09/26 04:43:14;;;;;;;4.85;2.47;;;;;;;16.17;75.41;101946.88;2114229;28;20918;-64
2023/09/26 04:44:19;;;;;;;6.78;2.60;;;;;;;16.19;75.38;101944.69;2105662;28;20087;-64
2023/09/26 04:45:25;;;;;;;6.70;2.65;;;;;;;16.19;75.45;101950.13;2098834;28;20134;-64
2023/09/26 04:46:30;;;;;;;6.53;2.53;;;;;;;16.16;75.60;101943.34;2090040;28;20040;-64
2023/09/26 04:47:41;;;;;;;6.72;2.80;;;;;;;16.16;75.46;101945.25;2098039;28;20119;-64
2023/09/26 04:48:46;;;;;;;7.40;2.85;;;;;;;16.15;75.67;101952.59;2099805;28;20021;-64
2023/09/26 04:49:48;;;;;;;11.02;2.72;;;;;;;16.14;75.76;101944.72;2107247;28;21251;-64
2023/09/26 04:50:54;;;;;;;5.65;2.95;;;;;;;16.13;75.98;101943.09;2105882;28;20143;-64
2023/09/26 04:51:56;;;;;;;6.28;2.72;;;;;;;16.12;75.78;101946.91;2105800;28;20886;-64
2023/09/26 04:53:01;;;;;;;6.88;2.88;;;;;;;16.11;75.97;101935.25;2115538;28;20842;-64
2023/09/26 04:54:05;;;;;;;4.78;2.85;;;;;;;16.13;75.94;101943.09;2110850;28;20084;-64
2023/09/26 04:55:10;;;;;;;7.43;2.83;;;;;;;16.14;76.10;101939.28;2105883;28;20049;-64
2023/09/26 04:56:15;;;;;;;9.95;2.97;;;;;;;16.11;76.10;101937.97;2109521;28;20044;-65
2023/09/26 04:57:22;;;;;;;4.47;3.15;;;;;;;16.14;76.29;101942.00;2105882;28;20032;-64
2023/09/26 04:58:26;;;;;;;7.03;2.83;;;;;;;16.14;76.38;101942.00;2104925;27;20028;-64
2023/09/26 04:59:31;;;;;;;8.02;3.47;;;;;;;16.18;76.08;101945.78;2099574;28;20084;-65
2023/09/26 05:00:36;;;;;;;4.70;2.92;;;;;;;16.20;76.21;101941.72;2088116;28;20025;-65
2023/09/26 05:01:42;;;;;;;8.82;3.55;;;;;;;16.21;76.20;101946.03;2082837;28;20111;-66